createdAt,value
2023-01-18T00:02:34.682Z,141.07
2023-01-18T00:05:24.082Z,100.45
2023-01-18T00:08:16.486Z,88.63
2023-01-18T00:11:06.526Z,239.90
2023-01-18T00:13:57.130Z,82.38
2023-01-18T00:16:46.403Z,104.40
2023-01-18T00:19:36.138Z,121.70
2023-01-18T00:22:25.419Z,96.18
2023-01-18T00:25:14.714Z,146.40
2023-01-18T00:28:04.021Z,108.55
2023-01-18T00:30:54.725Z,164.05
2023-01-18T00:33:45.293Z,120.63
2023-01-18T00:36:34.979Z,68.32
2023-01-18T00:39:24.516Z,87.18
2023-01-18T00:42:31.405Z,90.40
2023-01-18T00:45:21.351Z,125.72
2023-01-18T00:48:11.960Z,126.50
2023-01-18T00:51:01.215Z,114.50
2023-01-18T00:53:50.947Z,90.60
2023-01-18T00:56:40.136Z,187.23
2023-01-18T00:59:29.464Z,111.57
2023-01-18T01:02:18.808Z,80.75
2023-01-18T01:05:36.122Z,138.50
2023-01-18T01:08:25.419Z,123.63
2023-01-18T01:11:15.237Z,83.22
2023-01-18T01:14:22.228Z,91.15
2023-01-18T01:17:28.574Z,162.80
2023-01-18T01:20:37.058Z,93.75
2023-01-18T01:23:43.727Z,70.75
2023-01-18T01:26:32.918Z,65.38
2023-01-18T01:29:22.309Z,78.40
2023-01-18T01:32:11.930Z,73.20
2023-01-18T01:35:01.164Z,104.25
2023-01-18T01:37:51.842Z,121.72
2023-01-18T01:40:41.210Z,95.25
2023-01-18T01:43:43.765Z,129.63
2023-01-18T01:46:42.246Z,149.52
2023-01-18T01:49:35.028Z,117.07
2023-01-18T01:52:28.284Z,90.00
2023-01-18T01:58:18.069Z,144.90
2023-01-18T02:01:09.334Z,120.75
2023-01-18T02:04:02.217Z,93.45
2023-01-18T02:06:51.448Z,82.95
2023-01-18T02:09:41.542Z,101.75
2023-01-18T02:12:33.083Z,188.20
2023-01-18T02:15:24.363Z,182.95
2023-01-18T02:18:25.249Z,113.20
2023-01-18T02:21:19.784Z,105.40
2023-01-18T02:25:06.843Z,108.40
2023-01-18T02:28:10.330Z,131.65
2023-01-18T02:31:08.564Z,96.65
2023-01-18T02:34:06.277Z,176.40
2023-01-18T02:37:05.648Z,82.68
2023-01-18T02:40:11.233Z,68.78
2023-01-18T02:43:23.915Z,84.95
2023-01-18T02:46:34.160Z,96.17
2023-01-18T02:49:32.200Z,119.13
2023-01-18T02:52:42.663Z,70.90
2023-01-18T02:55:40.677Z,128.77
2023-01-18T02:58:35.609Z,74.28
2023-01-18T03:01:34.400Z,107.45
2023-01-18T03:04:27.934Z,122.18
2023-01-18T03:07:25.677Z,151.60
2023-01-18T03:10:18.115Z,121.35
2023-01-18T03:13:17.039Z,88.55
2023-01-18T03:16:14.155Z,91.07
2023-01-18T03:19:28.143Z,75.05
2023-01-18T03:22:17.653Z,89.38
2023-01-18T03:25:08.787Z,166.77
2023-01-18T03:28:18.778Z,102.13
2023-01-18T03:31:30.492Z,109.60
2023-01-18T03:34:28.265Z,80.88
2023-01-18T03:37:21.990Z,91.32
2023-01-18T03:40:17.036Z,62.75
2023-01-18T03:43:16.244Z,86.45
2023-01-18T03:46:08.225Z,141.85
2023-01-18T03:48:58.453Z,50.78
2023-01-18T03:52:07.204Z,87.45
2023-01-18T03:55:04.802Z,107.53
2023-01-18T03:57:58.698Z,138.20
2023-01-18T04:00:48.078Z,92.60
2023-01-18T04:03:37.264Z,115.13
2023-01-18T04:06:27.027Z,99.80
2023-01-18T04:09:17.741Z,102.85
2023-01-18T04:12:07.512Z,56.90
2023-01-18T04:14:56.768Z,58.00
2023-01-18T04:17:45.979Z,78.63
2023-01-18T04:20:35.243Z,95.00
2023-01-18T04:23:25.014Z,48.50
2023-01-18T04:26:16.793Z,61.53
2023-01-18T04:29:06.802Z,89.93
2023-01-18T04:31:56.360Z,40.28
2023-01-18T04:34:45.825Z,54.47
2023-01-18T04:37:35.124Z,145.30
2023-01-18T04:40:24.314Z,79.07
2023-01-18T04:43:15.130Z,38.70
2023-01-18T04:46:04.733Z,14.27
2023-01-18T04:48:54.132Z,16.10
2023-01-18T04:51:44.699Z,16.70
2023-01-18T04:54:34.113Z,41.20
2023-01-18T04:57:23.391Z,40.28
2023-01-18T05:00:16.112Z,35.40
2023-01-18T05:03:05.456Z,42.40
2023-01-18T05:05:56.236Z,18.48
2023-01-18T05:08:45.478Z,25.73
2023-01-18T05:11:34.753Z,22.02
2023-01-18T05:14:24.048Z,72.38
2023-01-18T05:17:14.620Z,74.65
2023-01-18T05:20:06.496Z,99.18
2023-01-18T05:22:55.919Z,57.55
2023-01-18T05:25:45.630Z,25.48
2023-01-18T05:28:34.855Z,79.38
2023-01-18T05:31:24.184Z,72.53
2023-01-18T05:34:14.830Z,91.13
2023-01-18T05:37:04.854Z,31.63
2023-01-18T05:39:54.056Z,71.40
2023-01-18T05:42:43.612Z,96.45
2023-01-18T05:45:33.005Z,15.23
2023-01-18T05:48:22.876Z,61.22
2023-01-18T05:51:14.793Z,71.07
2023-01-18T05:54:04.135Z,33.58
2023-01-18T05:56:53.396Z,28.75
2023-01-18T05:59:42.816Z,20.98
2023-01-18T06:02:32.093Z,48.95
2023-01-18T06:05:22.136Z,51.22
2023-01-18T06:08:12.828Z,29.40
2023-01-18T06:11:02.335Z,30.52
2023-01-18T06:13:52.438Z,33.25
2023-01-18T06:16:41.750Z,49.92
2023-01-18T06:19:31.106Z,62.83
2023-01-18T06:22:20.487Z,57.55
2023-01-18T06:25:11.539Z,101.68
2023-01-18T06:28:01.066Z,91.28
2023-01-18T06:30:53.305Z,146.98
2023-01-18T06:33:42.658Z,120.70
2023-01-18T06:36:33.063Z,136.55
2023-01-18T06:39:22.383Z,90.75
2023-01-18T06:42:13.058Z,124.57
2023-01-18T06:45:02.328Z,107.90
2023-01-18T06:47:52.076Z,92.20
2023-01-18T06:50:41.399Z,99.30
2023-01-18T06:53:30.674Z,146.00
2023-01-18T06:56:20.006Z,107.97
2023-01-18T06:59:10.749Z,107.72
2023-01-18T07:02:00.321Z,133.35
2023-01-18T07:04:49.710Z,144.02
2023-01-18T07:07:39.138Z,109.38
2023-01-18T07:10:28.437Z,188.40
2023-01-18T07:13:17.802Z,200.60
2023-01-18T07:16:13.284Z,104.93
2023-01-18T07:19:04.136Z,142.77
2023-01-18T07:21:54.621Z,118.47
2023-01-18T07:24:43.865Z,139.05
2023-01-18T07:27:33.253Z,215.65
2023-01-18T07:30:22.741Z,107.30
2023-01-18T07:33:13.883Z,96.28
2023-01-18T07:36:05.140Z,76.25
2023-01-18T07:38:54.393Z,140.38
2023-01-18T07:41:43.769Z,70.85
2023-01-18T07:44:33.014Z,71.07
2023-01-18T07:47:22.313Z,67.38
2023-01-18T07:50:14.430Z,143.50
2023-01-18T07:53:06.411Z,82.68
2023-01-18T07:55:59.673Z,91.53
2023-01-18T07:58:49.099Z,95.85
2023-01-18T08:01:38.591Z,98.05
2023-01-18T08:04:27.992Z,97.65
2023-01-18T08:07:18.922Z,121.82
2023-01-18T08:10:08.742Z,86.63
2023-01-18T08:12:58.605Z,142.65
2023-01-18T08:15:48.067Z,100.72
2023-01-18T08:18:37.400Z,109.57
2023-01-18T08:21:26.673Z,104.80
2023-01-18T08:24:18.019Z,101.43
2023-01-18T08:27:07.215Z,62.75
2023-01-18T08:29:57.256Z,89.75
2023-01-18T08:32:46.481Z,56.47
2023-01-18T08:35:41.123Z,58.15
2023-01-18T08:38:30.409Z,64.97
2023-01-18T08:41:22.748Z,72.55
2023-01-18T08:44:12.411Z,38.75
2023-01-18T08:47:01.653Z,39.58
2023-01-18T08:49:50.868Z,34.47
2023-01-18T08:52:40.268Z,42.42
2023-01-18T08:55:30.814Z,32.47
2023-01-18T08:58:21.526Z,54.28
2023-01-18T09:01:11.627Z,28.88
2023-01-18T09:04:00.881Z,46.88
2023-01-18T09:06:51.557Z,32.22
2023-01-18T09:09:40.854Z,64.28
2023-01-18T09:12:30.067Z,40.45
2023-01-18T09:15:20.811Z,69.72
2023-01-18T09:18:10.279Z,36.78
2023-01-18T09:20:59.841Z,29.83
2023-01-18T09:23:51.007Z,21.67
2023-01-18T09:26:41.064Z,24.83
2023-01-18T09:29:31.207Z,14.98
2023-01-18T09:32:22.216Z,44.60
2023-01-18T09:35:11.937Z,119.35
2023-01-18T09:38:01.185Z,112.40
2023-01-18T09:40:53.071Z,19.95
2023-01-18T09:43:50.083Z,36.63
2023-01-18T09:46:42.558Z,57.53
2023-01-18T09:49:42.097Z,119.07
2023-01-18T09:52:42.636Z,105.70
2023-01-18T09:55:47.295Z,77.95
2023-01-18T09:58:48.592Z,88.40
2023-01-18T10:01:39.020Z,57.38
2023-01-18T10:04:37.594Z,31.83
2023-01-18T10:07:30.723Z,32.00
2023-01-18T10:13:40.451Z,65.53
2023-01-18T10:16:30.348Z,99.88
2023-01-18T10:19:26.228Z,115.78
2023-01-18T10:22:24.157Z,68.35
2023-01-18T10:25:20.083Z,75.15
2023-01-18T10:28:39.670Z,101.63
2023-01-18T10:31:44.364Z,137.98
2023-01-18T10:34:36.228Z,60.75
2023-01-18T10:37:39.005Z,79.45
2023-01-18T10:40:28.329Z,61.92
2023-01-18T10:43:20.638Z,58.78
2023-01-18T10:46:16.816Z,137.23
2023-01-18T10:49:08.427Z,70.25
2023-01-18T10:51:57.715Z,135.95
2023-01-18T10:54:56.116Z,54.13
2023-01-18T10:57:50.269Z,46.53
2023-01-18T11:00:40.333Z,37.60
2023-01-18T11:03:40.109Z,47.42
2023-01-18T11:06:29.854Z,57.47
2023-01-18T11:09:42.959Z,43.40
2023-01-18T11:12:43.551Z,81.78
2023-01-18T11:15:33.028Z,62.80
2023-01-18T11:18:22.360Z,30.98
2023-01-18T11:21:12.643Z,149.18
2023-01-18T11:24:09.786Z,256.73
2023-01-18T11:27:02.314Z,78.05
2023-01-18T11:29:53.675Z,72.22
2023-01-18T11:32:42.885Z,125.72
2023-01-18T11:35:36.595Z,113.40
2023-01-18T11:38:32.535Z,101.70
2023-01-18T11:41:23.584Z,121.70
2023-01-18T11:44:22.713Z,141.68
2023-01-18T11:47:22.995Z,140.88
2023-01-18T11:50:28.492Z,102.00
2023-01-18T11:53:32.056Z,109.47
2023-01-18T11:56:33.171Z,103.38
2023-01-18T11:59:29.646Z,102.75
2023-01-18T12:02:58.927Z,137.95
2023-01-18T12:05:55.869Z,96.78
2023-01-18T12:09:05.019Z,121.70
2023-01-18T12:12:19.451Z,136.50
2023-01-18T12:15:43.247Z,193.68
2023-01-18T12:19:07.981Z,149.70
2023-01-18T12:22:32.365Z,145.93
2023-01-18T12:26:11.882Z,256.50
2023-01-18T12:29:56.746Z,203.32
2023-01-18T12:33:17.548Z,123.90
2023-01-18T12:36:31.577Z,175.40
2023-01-18T12:39:38.392Z,127.25
2023-01-18T12:42:48.124Z,130.88
2023-01-18T12:45:41.326Z,133.80
2023-01-18T12:48:36.117Z,172.25
2023-01-18T12:51:31.515Z,134.88
2023-01-18T12:54:31.130Z,157.10
2023-01-18T12:57:24.083Z,131.88
2023-01-18T13:00:21.235Z,189.00
2023-01-18T13:03:15.434Z,169.85
2023-01-18T13:06:05.596Z,113.05
2023-01-18T13:09:02.422Z,222.35
2023-01-18T13:11:52.081Z,119.30
2023-01-18T13:14:48.886Z,137.32
2023-01-18T13:17:47.014Z,159.10
2023-01-18T13:20:50.793Z,187.07
2023-01-18T13:23:55.592Z,138.23
2023-01-18T13:26:46.892Z,155.00
2023-01-18T13:29:36.711Z,144.73
2023-01-18T13:32:32.058Z,149.32
2023-01-18T13:35:28.873Z,188.82
2023-01-18T13:38:27.490Z,163.68
2023-01-18T13:41:26.353Z,147.32
2023-01-18T13:44:32.597Z,165.07
2023-01-18T13:47:54.567Z,155.27
2023-01-18T13:50:48.372Z,150.98
2023-01-18T13:53:51.201Z,158.60
2023-01-18T13:56:41.108Z,150.27
2023-01-18T13:59:34.955Z,146.55
2023-01-18T14:02:32.327Z,144.73
2023-01-18T14:05:26.024Z,139.00
2023-01-18T14:08:22.092Z,197.35
2023-01-18T14:11:25.126Z,153.20
2023-01-18T14:14:35.484Z,171.32
2023-01-18T14:17:26.554Z,147.45
2023-01-18T14:20:47.209Z,140.68
2023-01-18T14:24:15.185Z,164.27
2023-01-18T14:27:06.416Z,183.38
2023-01-18T14:30:03.978Z,146.57
2023-01-18T14:33:00.804Z,144.45
2023-01-18T14:35:54.499Z,107.03
2023-01-18T14:38:44.069Z,112.07
2023-01-18T14:41:34.456Z,70.68
2023-01-18T14:44:27.220Z,54.47
2023-01-18T14:47:24.297Z,78.43
2023-01-18T14:50:20.132Z,59.85
2023-01-18T14:53:16.955Z,46.42
2023-01-18T14:56:10.797Z,37.65
2023-01-18T14:59:03.171Z,22.10
2023-01-18T15:01:55.375Z,39.80
2023-01-18T15:04:47.523Z,22.15
2023-01-18T15:07:39.306Z,22.70
2023-01-18T15:10:28.839Z,18.98
2023-01-18T15:13:20.276Z,35.45
2023-01-18T15:16:09.869Z,27.02
2023-01-18T15:19:01.969Z,25.38
2023-01-18T15:21:53.190Z,27.15
2023-01-18T15:24:44.774Z,23.38
2023-01-18T15:27:34.124Z,36.55
2023-01-18T15:30:26.097Z,48.60
2023-01-18T15:33:15.801Z,28.27
2023-01-18T15:36:05.769Z,35.70
2023-01-18T15:38:56.385Z,37.95
2023-01-18T15:41:45.930Z,44.80
2023-01-18T15:44:43.873Z,56.10
2023-01-18T15:47:36.985Z,38.40
2023-01-18T15:53:25.243Z,34.00
2023-01-18T15:56:24.264Z,33.63
2023-01-18T15:59:13.753Z,35.30
2023-01-18T16:02:18.596Z,33.05
2023-01-18T16:05:22.972Z,32.88
2023-01-18T16:08:23.406Z,31.90
2023-01-18T16:11:30.905Z,36.72
2023-01-18T16:14:35.182Z,38.78
2023-01-18T16:17:27.313Z,37.83
2023-01-18T16:20:18.215Z,37.28
2023-01-18T16:23:11.147Z,34.88
2023-01-18T16:26:05.523Z,39.97
2023-01-18T16:29:05.357Z,36.63
2023-01-18T16:32:15.458Z,38.65
2023-01-18T16:35:15.140Z,47.03
2023-01-18T16:38:05.158Z,38.40
2023-01-18T16:40:55.436Z,42.65
2023-01-18T16:43:45.077Z,85.72
2023-01-18T16:46:36.931Z,40.75
2023-01-18T16:49:27.265Z,92.85
2023-01-18T16:52:17.209Z,40.78
2023-01-18T16:55:08.002Z,110.45
2023-01-18T16:57:57.561Z,22.77
2023-01-18T17:00:57.489Z,16.80
2023-01-18T17:03:50.186Z,20.98
2023-01-18T17:06:42.611Z,17.98
2023-01-18T17:09:40.374Z,14.95
2023-01-18T17:12:33.569Z,45.15
2023-01-18T17:15:23.163Z,25.02
2023-01-18T17:18:16.623Z,38.92
2023-01-18T17:21:07.557Z,24.40
2023-01-18T17:23:56.882Z,30.27
2023-01-18T17:26:46.262Z,42.13
2023-01-18T17:29:35.601Z,70.72
2023-01-18T17:32:25.239Z,71.03
2023-01-18T17:35:16.236Z,88.22
2023-01-18T17:38:11.298Z,113.40
2023-01-18T17:41:01.018Z,90.13
2023-01-18T17:43:50.678Z,108.55
2023-01-18T17:46:40.258Z,118.15
2023-01-18T17:49:29.623Z,126.05
2023-01-18T17:52:18.918Z,123.45
2023-01-18T17:55:15.249Z,158.35
2023-01-18T17:58:04.829Z,176.57
2023-01-18T18:00:55.451Z,164.10
2023-01-18T18:03:48.492Z,157.13
2023-01-18T18:06:40.507Z,140.95
2023-01-18T18:09:40.666Z,135.35
2023-01-18T18:12:33.609Z,128.40
2023-01-18T18:15:23.606Z,137.55
2023-01-18T18:18:22.708Z,130.32
2023-01-18T18:21:12.940Z,116.13
2023-01-18T18:24:02.282Z,119.80
2023-01-18T18:26:51.890Z,128.60
2023-01-18T18:29:42.770Z,109.28
2023-01-18T18:32:31.979Z,84.90
2023-01-18T18:35:26.274Z,68.30
2023-01-18T18:38:18.905Z,62.80
2023-01-18T18:41:08.994Z,74.50
2023-01-18T18:43:58.553Z,113.47
2023-01-18T18:46:49.245Z,57.40
2023-01-18T18:49:38.727Z,88.28
2023-01-18T18:52:28.046Z,54.50
2023-01-18T18:55:19.078Z,42.22
2023-01-18T18:58:08.428Z,124.72
2023-01-18T19:00:57.857Z,56.40
2023-01-18T19:03:49.466Z,60.22
2023-01-18T19:06:39.365Z,54.47
2023-01-18T19:09:28.724Z,67.05
2023-01-18T19:12:18.219Z,40.55
2023-01-18T19:15:08.902Z,44.42
2023-01-18T19:17:59.264Z,41.83
2023-01-18T19:20:52.210Z,28.95
2023-01-18T19:23:41.495Z,33.60
2023-01-18T19:26:30.811Z,26.48
2023-01-18T19:29:20.129Z,25.75
2023-01-18T19:32:09.303Z,28.48
2023-01-18T19:34:58.559Z,68.45
2023-01-18T19:37:49.990Z,26.13
2023-01-18T19:40:39.693Z,52.17
2023-01-18T19:43:29.015Z,50.53
2023-01-18T19:46:20.212Z,22.95
2023-01-18T19:49:09.712Z,23.30
2023-01-18T19:51:59.038Z,40.83
2023-01-18T19:54:49.753Z,66.38
2023-01-18T19:57:39.065Z,48.33
2023-01-18T20:00:29.043Z,62.85
2023-01-18T20:03:18.356Z,80.47
2023-01-18T20:06:10.844Z,82.28
2023-01-18T20:09:00.298Z,77.30
2023-01-18T20:11:51.033Z,91.32
2023-01-18T20:14:42.654Z,105.00
2023-01-18T20:17:32.061Z,73.82
2023-01-18T20:20:31.756Z,71.03
2023-01-18T20:23:22.454Z,85.25
2023-01-18T20:26:12.415Z,79.95
2023-01-18T20:29:04.084Z,90.85
2023-01-18T20:31:55.181Z,93.80
2023-01-18T20:37:36.824Z,85.38
2023-01-18T20:40:26.196Z,70.10
2023-01-18T20:43:15.515Z,93.10
2023-01-18T20:46:08.606Z,132.27
2023-01-18T20:51:47.310Z,115.70
2023-01-18T20:54:36.890Z,167.27
2023-01-18T20:57:30.366Z,192.85
2023-01-18T21:00:21.101Z,148.10
2023-01-18T21:03:17.943Z,69.57
2023-01-18T21:06:09.102Z,37.25
2023-01-18T21:09:01.145Z,47.75
2023-01-18T21:11:50.479Z,60.60
2023-01-18T21:14:39.699Z,64.95
2023-01-18T21:17:29.116Z,74.03
2023-01-18T21:20:20.131Z,89.63
2023-01-18T21:23:10.051Z,65.05
2023-01-18T21:26:01.696Z,89.75
2023-01-18T21:28:50.959Z,96.28
2023-01-18T21:31:41.127Z,99.82
2023-01-18T21:34:30.632Z,99.03
2023-01-18T21:37:21.258Z,59.10
2023-01-18T21:40:12.405Z,82.07
2023-01-18T21:43:19.373Z,62.10
2023-01-18T21:46:12.159Z,64.72
2023-01-18T21:49:04.137Z,57.88
2023-01-18T21:52:10.378Z,160.48
2023-01-18T21:55:01.049Z,61.30
2023-01-18T21:58:10.511Z,56.88
2023-01-18T22:01:00.676Z,54.40
2023-01-18T22:04:08.783Z,37.67
2023-01-18T22:07:00.298Z,87.20
2023-01-18T22:10:03.077Z,31.88
2023-01-18T22:12:55.227Z,30.52
2023-01-18T22:15:44.415Z,29.92
2023-01-18T22:18:33.641Z,29.90
2023-01-18T22:21:25.366Z,80.57
2023-01-18T22:24:15.943Z,34.67
2023-01-18T22:27:05.800Z,45.83
2023-01-18T22:29:56.498Z,71.00
2023-01-18T22:32:45.894Z,46.22
2023-01-18T22:35:35.152Z,44.72
2023-01-18T22:38:24.366Z,108.97
2023-01-18T22:41:16.049Z,62.22
2023-01-18T22:44:05.397Z,51.50
2023-01-18T22:46:56.133Z,109.57
2023-01-18T22:49:45.343Z,54.05
2023-01-18T22:52:34.598Z,44.47
2023-01-18T22:55:23.807Z,62.25
2023-01-18T22:58:13.070Z,134.73
2023-01-18T23:01:02.738Z,52.85
2023-01-18T23:03:54.256Z,79.88
2023-01-18T23:06:45.937Z,56.03
2023-01-18T23:09:35.247Z,81.47
2023-01-18T23:12:24.506Z,84.75
2023-01-18T23:15:31.769Z,138.18
2023-01-18T23:18:20.976Z,80.47
2023-01-18T23:21:12.042Z,61.47
2023-01-18T23:24:01.296Z,76.65
2023-01-18T23:26:50.825Z,75.07
2023-01-18T23:29:40.483Z,71.43
2023-01-18T23:32:30.675Z,80.60
2023-01-18T23:35:20.055Z,90.18
2023-01-18T23:38:10.770Z,82.15
2023-01-18T23:41:17.087Z,69.45
2023-01-18T23:44:23.934Z,72.72
2023-01-18T23:47:30.160Z,88.72
2023-01-18T23:50:37.078Z,64.72
2023-01-18T23:53:44.748Z,84.03
2023-01-18T23:56:35.246Z,79.75
2023-01-18T23:59:24.420Z,103.95
